sensor_id;sensor_type;location;lat;lon;timestamp;pressure;altitude;pressure_sealevel;temperature;humidity
43161;BME280;40968;52.342;5.528;2023-04-20T00:00:14;102484.72;;;9.45;40.83
43161;BME280;40968;52.342;5.528;2023-04-20T00:02:42;102474.91;;;9.46;40.32
43161;BME280;40968;52.342;5.528;2023-04-20T00:05:09;102422.72;;;9.15;40.60
43161;BME280;40968;52.342;5.528;2023-04-20T00:07:38;102326.53;;;8.50;41.70
43161;BME280;40968;52.342;5.528;2023-04-20T00:10:07;102419.97;;;9.17;41.70
43161;BME280;40968;52.342;5.528;2023-04-20T00:12:34;102417.19;;;9.20;41.58
43161;BME280;40968;52.342;5.528;2023-04-20T00:15:01;102390.88;;;9.09;41.84
43161;BME280;40968;52.342;5.528;2023-04-20T00:17:27;102461.47;;;9.48;42.80
43161;BME280;40968;52.342;5.528;2023-04-20T00:19:54;102300.63;;;8.52;42.65
43161;BME280;40968;52.342;5.528;2023-04-20T00:22:20;102384.19;;;8.99;41.77
43161;BME280;40968;52.342;5.528;2023-04-20T00:24:48;102428.41;;;9.28;42.33
43161;BME280;40968;52.342;5.528;2023-04-20T00:27:15;102446.47;;;9.23;42.03
43161;BME280;40968;52.342;5.528;2023-04-20T00:29:42;102377.25;;;8.74;42.68
43161;BME280;40968;52.342;5.528;2023-04-20T00:32:08;102139.94;;;7.33;44.05
43161;BME280;40968;52.342;5.528;2023-04-20T00:34:35;102314.84;;;8.30;42.96
43161;BME280;40968;52.342;5.528;2023-04-20T00:37:01;102232.34;;;7.80;43.13
43161;BME280;40968;52.342;5.528;2023-04-20T00:39:28;102411.09;;;8.73;43.66
43161;BME280;40968;52.342;5.528;2023-04-20T00:42:02;102309.81;;;8.01;44.00
43161;BME280;40968;52.342;5.528;2023-04-20T00:44:29;102333.34;;;8.13;44.51
43161;BME280;40968;52.342;5.528;2023-04-20T00:46:55;102147.50;;;6.98;45.20
43161;BME280;40968;52.342;5.528;2023-04-20T00:49:24;102330.97;;;8.05;45.43
43161;BME280;40968;52.342;5.528;2023-04-20T00:51:52;102392.00;;;8.38;45.70
43161;BME280;40968;52.342;5.528;2023-04-20T00:54:19;102390.44;;;8.33;46.99
43161;BME280;40968;52.342;5.528;2023-04-20T00:56:46;102375.94;;;8.40;46.44
43161;BME280;40968;52.342;5.528;2023-04-20T00:59:14;102373.13;;;8.43;46.57
43161;BME280;40968;52.342;5.528;2023-04-20T01:01:40;102381.03;;;8.46;46.63
43161;BME280;40968;52.342;5.528;2023-04-20T01:04:08;102335.41;;;8.28;46.74
43161;BME280;40968;52.342;5.528;2023-04-20T01:06:35;102304.13;;;8.10;47.06
43161;BME280;40968;52.342;5.528;2023-04-20T01:09:01;102025.84;;;6.51;47.27
43161;BME280;40968;52.342;5.528;2023-04-20T01:11:28;102357.81;;;8.48;47.73
43161;BME280;40968;52.342;5.528;2023-04-20T01:13:54;102083.88;;;6.89;47.89
43161;BME280;40968;52.342;5.528;2023-04-20T01:16:22;102347.22;;;8.45;48.76
43161;BME280;40968;52.342;5.528;2023-04-20T01:18:50;102312.53;;;8.21;47.98
43161;BME280;40968;52.342;5.528;2023-04-20T01:21:18;102257.84;;;7.87;48.47
43161;BME280;40968;52.342;5.528;2023-04-20T01:23:47;102150.97;;;7.24;48.53
43161;BME280;40968;52.342;5.528;2023-04-20T01:26:16;102194.22;;;7.54;49.20
43161;BME280;40968;52.342;5.528;2023-04-20T01:28:43;102328.22;;;8.30;49.60
43161;BME280;40968;52.342;5.528;2023-04-20T01:31:10;102321.22;;;8.26;49.92
43161;BME280;40968;52.342;5.528;2023-04-20T01:33:37;102273.84;;;7.87;49.62
43161;BME280;40968;52.342;5.528;2023-04-20T01:36:05;102321.50;;;8.20;49.79
43161;BME280;40968;52.342;5.528;2023-04-20T01:38:32;102275.34;;;7.94;50.42
43161;BME280;40968;52.342;5.528;2023-04-20T01:41:00;102312.00;;;8.13;50.89
43161;BME280;40968;52.342;5.528;2023-04-20T01:43:29;102281.91;;;7.86;50.66
43161;BME280;40968;52.342;5.528;2023-04-20T01:45:55;102297.78;;;8.12;50.82
43161;BME280;40968;52.342;5.528;2023-04-20T01:48:23;102035.16;;;6.63;50.76
43161;BME280;40968;52.342;5.528;2023-04-20T01:50:49;102233.94;;;7.84;50.99
43161;BME280;40968;52.342;5.528;2023-04-20T01:53:16;101999.31;;;6.48;51.16
43161;BME280;40968;52.342;5.528;2023-04-20T01:55:43;102267.50;;;8.12;52.00
43161;BME280;40968;52.342;5.528;2023-04-20T01:58:11;102289.19;;;8.26;51.83
43161;BME280;40968;52.342;5.528;2023-04-20T02:00:37;102287.47;;;8.25;51.84
43161;BME280;40968;52.342;5.528;2023-04-20T02:03:04;102280.25;;;8.27;52.05
43161;BME280;40968;52.342;5.528;2023-04-20T02:05:31;102202.66;;;7.88;52.62
43161;BME280;40968;52.342;5.528;2023-04-20T02:07:57;101990.50;;;6.70;52.37
43161;BME280;40968;52.342;5.528;2023-04-20T02:10:24;102265.81;;;8.32;52.55
43161;BME280;40968;52.342;5.528;2023-04-20T02:12:51;102259.47;;;8.34;53.08
43161;BME280;40968;52.342;5.528;2023-04-20T02:15:18;102200.53;;;7.96;53.04
43161;BME280;40968;52.342;5.528;2023-04-20T02:17:45;102180.41;;;7.87;53.28
43161;BME280;40968;52.342;5.528;2023-04-20T02:20:16;102253.59;;;8.26;53.12
43161;BME280;40968;52.342;5.528;2023-04-20T02:22:43;102005.19;;;6.80;53.20
43161;BME280;40968;52.342;5.528;2023-04-20T02:25:10;102060.06;;;7.08;53.17
43161;BME280;40968;52.342;5.528;2023-04-20T02:27:37;102174.59;;;7.77;53.71
43161;BME280;40968;52.342;5.528;2023-04-20T02:30:04;102169.88;;;7.84;53.75
43161;BME280;40968;52.342;5.528;2023-04-20T02:32:34;102228.97;;;8.19;54.22
43161;BME280;40968;52.342;5.528;2023-04-20T02:35:00;102227.03;;;8.23;54.09
43161;BME280;40968;52.342;5.528;2023-04-20T02:37:28;102176.16;;;7.83;53.94
43161;BME280;40968;52.342;5.528;2023-04-20T02:39:55;102190.69;;;7.98;54.02
43161;BME280;40968;52.342;5.528;2023-04-20T02:42:21;102215.38;;;8.24;54.00
43161;BME280;40968;52.342;5.528;2023-04-20T02:44:48;102213.47;;;8.27;53.72
43161;BME280;40968;52.342;5.528;2023-04-20T02:47:16;102177.72;;;8.09;53.70
43161;BME280;40968;52.342;5.528;2023-04-20T02:49:44;102210.69;;;8.30;53.24
43161;BME280;40968;52.342;5.528;2023-04-20T02:52:11;102148.06;;;7.95;53.53
43161;BME280;40968;52.342;5.528;2023-04-20T02:54:38;102180.88;;;8.19;53.60
43161;BME280;40968;52.342;5.528;2023-04-20T02:57:05;102113.97;;;7.81;53.27
43161;BME280;40968;52.342;5.528;2023-04-20T02:59:31;102199.84;;;8.34;53.93
43161;BME280;40968;52.342;5.528;2023-04-20T03:01:58;102153.75;;;8.08;53.71
43161;BME280;40968;52.342;5.528;2023-04-20T03:04:24;102177.00;;;8.26;53.94
43161;BME280;40968;52.342;5.528;2023-04-20T03:06:53;102147.50;;;8.09;53.99
43161;BME280;40968;52.342;5.528;2023-04-20T03:09:20;102189.03;;;8.37;53.98
43161;BME280;40968;52.342;5.528;2023-04-20T03:11:46;102138.47;;;8.11;53.84
43161;BME280;40968;52.342;5.528;2023-04-20T03:14:13;102133.31;;;8.07;54.01
43161;BME280;40968;52.342;5.528;2023-04-20T03:16:39;102174.59;;;8.41;54.38
43161;BME280;40968;52.342;5.528;2023-04-20T03:19:06;102183.41;;;8.43;55.00
43161;BME280;40968;52.342;5.528;2023-04-20T03:21:33;102124.53;;;8.05;54.72
43161;BME280;40968;52.342;5.528;2023-04-20T03:24:01;102176.34;;;8.42;54.52
43161;BME280;40968;52.342;5.528;2023-04-20T03:26:27;102179.81;;;8.44;54.71
43161;BME280;40968;52.342;5.528;2023-04-20T03:28:54;102123.28;;;8.13;54.61
43161;BME280;40968;52.342;5.528;2023-04-20T03:31:21;102167.53;;;8.40;54.04
43161;BME280;40968;52.342;5.528;2023-04-20T03:33:48;102172.00;;;8.39;54.77
43161;BME280;40968;52.342;5.528;2023-04-20T03:36:14;102110.19;;;8.07;54.83
43161;BME280;40968;52.342;5.528;2023-04-20T03:38:41;102110.38;;;8.03;54.76
43161;BME280;40968;52.342;5.528;2023-04-20T03:41:09;102094.34;;;8.03;54.99
43161;BME280;40968;52.342;5.528;2023-04-20T03:43:35;102114.97;;;8.20;55.21
43161;BME280;40968;52.342;5.528;2023-04-20T03:46:02;102156.69;;;8.43;54.88
43161;BME280;40968;52.342;5.528;2023-04-20T03:48:28;101979.72;;;7.38;54.99
43161;BME280;40968;52.342;5.528;2023-04-20T03:50:55;102121.06;;;8.23;55.05
43161;BME280;40968;52.342;5.528;2023-04-20T03:53:23;102149.63;;;8.42;55.32
43161;BME280;40968;52.342;5.528;2023-04-20T03:55:49;102103.84;;;8.10;55.78
43161;BME280;40968;52.342;5.528;2023-04-20T03:58:17;102051.66;;;7.82;56.09
43161;BME280;40968;52.342;5.528;2023-04-20T04:00:45;102054.31;;;7.82;56.20
43161;BME280;40968;52.342;5.528;2023-04-20T04:03:12;102037.69;;;7.75;56.06
43161;BME280;40968;52.342;5.528;2023-04-20T04:05:39;101914.97;;;7.13;56.24
43161;BME280;40968;52.342;5.528;2023-04-20T04:08:06;102144.28;;;8.42;56.31
43161;BME280;40968;52.342;5.528;2023-04-20T04:10:32;102078.22;;;8.06;56.38
43161;BME280;40968;52.342;5.528;2023-04-20T04:12:59;102130.19;;;8.38;56.34
43161;BME280;40968;52.342;5.528;2023-04-20T04:15:27;102066.06;;;7.99;56.64
43161;BME280;40968;52.342;5.528;2023-04-20T04:17:55;101913.44;;;7.08;56.91
43161;BME280;40968;52.342;5.528;2023-04-20T04:20:21;102073.13;;;8.00;56.82
43161;BME280;40968;52.342;5.528;2023-04-20T04:22:48;102124.13;;;8.35;57.58
43161;BME280;40968;52.342;5.528;2023-04-20T04:25:16;102110.28;;;8.25;57.32
43161;BME280;40968;52.342;5.528;2023-04-20T04:27:42;102104.97;;;8.25;57.36
43161;BME280;40968;52.342;5.528;2023-04-20T04:30:12;102112.47;;;8.36;57.53
43161;BME280;40968;52.342;5.528;2023-04-20T04:32:40;101942.13;;;7.23;57.62
43161;BME280;40968;52.342;5.528;2023-04-20T04:35:08;102070.19;;;8.06;57.74
43161;BME280;40968;52.342;5.528;2023-04-20T04:37:35;101753.72;;;6.19;57.63
43161;BME280;40968;52.342;5.528;2023-04-20T04:40:02;101955.50;;;7.42;57.63
43161;BME280;40968;52.342;5.528;2023-04-20T04:42:31;102111.84;;;8.30;57.33
43161;BME280;40968;52.342;5.528;2023-04-20T04:44:58;101968.78;;;7.44;57.69
43161;BME280;40968;52.342;5.528;2023-04-20T04:47:26;102106.69;;;8.26;57.71
43161;BME280;40968;52.342;5.528;2023-04-20T04:49:56;101970.41;;;7.48;57.51
43161;BME280;40968;52.342;5.528;2023-04-20T04:52:25;102098.75;;;8.24;57.54
43161;BME280;40968;52.342;5.528;2023-04-20T04:54:52;102033.09;;;7.79;57.39
43161;BME280;40968;52.342;5.528;2023-04-20T04:57:19;102037.56;;;7.78;57.60
43161;BME280;40968;52.342;5.528;2023-04-20T04:59:45;102035.91;;;7.76;57.81
43161;BME280;40968;52.342;5.528;2023-04-20T05:02:12;101862.47;;;6.73;57.91
43161;BME280;40968;52.342;5.528;2023-04-20T05:04:38;102095.94;;;8.07;57.61
43161;BME280;40968;52.342;5.528;2023-04-20T05:07:06;102071.66;;;7.92;58.06
43161;BME280;40968;52.342;5.528;2023-04-20T05:09:34;102092.50;;;8.05;57.81
43161;BME280;40968;52.342;5.528;2023-04-20T05:12:01;102042.16;;;7.75;57.65
43161;BME280;40968;52.342;5.528;2023-04-20T05:14:29;102056.19;;;7.80;57.15
43161;BME280;40968;52.342;5.528;2023-04-20T05:16:56;102063.84;;;7.88;56.75
43161;BME280;40968;52.342;5.528;2023-04-20T05:19:22;102002.41;;;7.48;56.68
43161;BME280;40968;52.342;5.528;2023-04-20T05:21:49;102044.16;;;7.70;56.92
43161;BME280;40968;52.342;5.528;2023-04-20T05:24:17;102039.75;;;7.69;57.28
43161;BME280;40968;52.342;5.528;2023-04-20T05:26:44;101990.25;;;7.41;57.79
43161;BME280;40968;52.342;5.528;2023-04-20T05:29:10;102089.28;;;7.96;57.52
43161;BME280;40968;52.342;5.528;2023-04-20T05:31:37;101811.66;;;6.35;56.98
43161;BME280;40968;52.342;5.528;2023-04-20T05:34:04;101980.50;;;7.19;57.15
43161;BME280;40968;52.342;5.528;2023-04-20T05:36:30;102098.97;;;7.99;57.25
43161;BME280;40968;52.342;5.528;2023-04-20T05:38:57;102004.41;;;7.43;57.31
43161;BME280;40968;52.342;5.528;2023-04-20T05:41:26;102099.69;;;8.03;57.71
43161;BME280;40968;52.342;5.528;2023-04-20T05:43:52;102093.34;;;8.05;57.58
43161;BME280;40968;52.342;5.528;2023-04-20T05:46:19;102054.59;;;7.76;57.76
43161;BME280;40968;52.342;5.528;2023-04-20T05:48:46;102049.00;;;7.82;57.53
43161;BME280;40968;52.342;5.528;2023-04-20T05:51:12;101873.88;;;6.76;57.16
43161;BME280;40968;52.342;5.528;2023-04-20T05:53:39;102098.63;;;8.07;57.25
43161;BME280;40968;52.342;5.528;2023-04-20T05:56:06;102103.16;;;8.05;57.28
43161;BME280;40968;52.342;5.528;2023-04-20T05:58:35;101763.63;;;6.16;57.38
43161;BME280;40968;52.342;5.528;2023-04-20T06:01:02;102100.28;;;8.09;57.10
43161;BME280;40968;52.342;5.528;2023-04-20T06:03:29;102103.03;;;8.08;57.75
43161;BME280;40968;52.342;5.528;2023-04-20T06:05:56;102052.59;;;7.81;57.95
43161;BME280;40968;52.342;5.528;2023-04-20T06:08:22;102009.19;;;7.55;57.72
43161;BME280;40968;52.342;5.528;2023-04-20T06:10:52;101591.50;;;5.07;57.14
43161;BME280;40968;52.342;5.528;2023-04-20T06:13:19;102100.56;;;8.03;57.07
43161;BME280;40968;52.342;5.528;2023-04-20T06:15:47;102080.22;;;8.01;57.41
43161;BME280;40968;52.342;5.528;2023-04-20T06:18:13;102078.63;;;7.96;56.67
43161;BME280;40968;52.342;5.528;2023-04-20T06:20:42;102081.31;;;7.95;56.71
43161;BME280;40968;52.342;5.528;2023-04-20T06:23:08;101813.41;;;6.36;56.94
43161;BME280;40968;52.342;5.528;2023-04-20T06:25:36;102073.53;;;7.90;56.99
43161;BME280;40968;52.342;5.528;2023-04-20T06:28:02;102071.88;;;7.88;57.49
43161;BME280;40968;52.342;5.528;2023-04-20T06:30:29;102093.28;;;7.86;57.86
43161;BME280;40968;52.342;5.528;2023-04-20T06:32:59;102022.69;;;7.52;58.67
43161;BME280;40968;52.342;5.528;2023-04-20T06:35:26;102039.38;;;7.57;58.89
43161;BME280;40968;52.342;5.528;2023-04-20T06:37:53;102083.06;;;7.75;59.74
43161;BME280;40968;52.342;5.528;2023-04-20T06:40:21;102071.31;;;7.59;60.71
43161;BME280;40968;52.342;5.528;2023-04-20T06:42:48;102035.38;;;7.25;59.82
43161;BME280;40968;52.342;5.528;2023-04-20T06:45:15;102054.66;;;7.32;60.30
43161;BME280;40968;52.342;5.528;2023-04-20T06:47:42;102102.44;;;7.58;61.52
43161;BME280;40968;52.342;5.528;2023-04-20T06:50:10;101865.66;;;6.16;62.16
43161;BME280;40968;52.342;5.528;2023-04-20T06:52:38;101963.28;;;6.61;63.12
43161;BME280;40968;52.342;5.528;2023-04-20T06:55:05;102105.63;;;7.46;63.29
43161;BME280;40968;52.342;5.528;2023-04-20T06:57:32;101851.53;;;5.90;63.72
43161;BME280;40968;52.342;5.528;2023-04-20T06:59:58;102090.25;;;7.30;64.28
43161;BME280;40968;52.342;5.528;2023-04-20T07:02:26;102029.19;;;6.80;65.11
43161;BME280;40968;52.342;5.528;2023-04-20T07:04:52;102112.09;;;7.18;65.35
43161;BME280;40968;52.342;5.528;2023-04-20T07:07:26;101866.16;;;5.78;65.98
43161;BME280;40968;52.342;5.528;2023-04-20T07:09:53;101669.28;;;4.63;66.00
43161;BME280;40968;52.342;5.528;2023-04-20T07:12:19;102002.66;;;6.53;66.53
43161;BME280;40968;52.342;5.528;2023-04-20T07:14:46;102099.13;;;7.09;66.84
43161;BME280;40968;52.342;5.528;2023-04-20T07:17:12;102093.81;;;7.07;66.85
43161;BME280;40968;52.342;5.528;2023-04-20T07:19:39;102022.94;;;6.57;66.96
43161;BME280;40968;52.342;5.528;2023-04-20T07:22:05;102099.28;;;7.04;67.32
43161;BME280;40968;52.342;5.528;2023-04-20T07:24:33;102111.75;;;7.04;67.31
43161;BME280;40968;52.342;5.528;2023-04-20T07:27:00;102040.75;;;6.79;67.71
43161;BME280;40968;52.342;5.528;2023-04-20T07:29:26;102088.50;;;7.07;68.13
43161;BME280;40968;52.342;5.528;2023-04-20T07:31:53;102027.34;;;6.58;68.28
43161;BME280;40968;52.342;5.528;2023-04-20T07:34:20;102095.06;;;6.99;68.48
43161;BME280;40968;52.342;5.528;2023-04-20T07:36:47;102041.34;;;6.63;68.76
43161;BME280;40968;52.342;5.528;2023-04-20T07:39:13;101975.38;;;6.24;68.63
43161;BME280;40968;52.342;5.528;2023-04-20T07:41:41;101901.56;;;5.80;68.88
43161;BME280;40968;52.342;5.528;2023-04-20T07:44:08;101986.84;;;6.26;69.29
43161;BME280;40968;52.342;5.528;2023-04-20T07:46:35;102101.50;;;6.93;69.72
43161;BME280;40968;52.342;5.528;2023-04-20T07:49:02;102087.44;;;6.89;69.14
43161;BME280;40968;52.342;5.528;2023-04-20T07:51:28;102009.22;;;6.44;68.88
43161;BME280;40968;52.342;5.528;2023-04-20T07:53:56;102037.56;;;6.69;68.76
43161;BME280;40968;52.342;5.528;2023-04-20T07:56:23;102069.84;;;6.85;68.76
43161;BME280;40968;52.342;5.528;2023-04-20T07:58:51;102043.16;;;6.63;68.72
43161;BME280;40968;52.342;5.528;2023-04-20T08:01:22;102066.72;;;6.74;68.43
43161;BME280;40968;52.342;5.528;2023-04-20T08:03:49;102063.84;;;6.78;68.33
43161;BME280;40968;52.342;5.528;2023-04-20T08:06:15;101884.31;;;5.67;68.38
43161;BME280;40968;52.342;5.528;2023-04-20T08:08:42;102072.72;;;6.79;68.12
43161;BME280;40968;52.342;5.528;2023-04-20T08:11:08;102024.50;;;6.63;69.18
43161;BME280;40968;52.342;5.528;2023-04-20T08:13:36;101977.38;;;6.41;68.43
43161;BME280;40968;52.342;5.528;2023-04-20T08:16:05;102051.66;;;6.95;68.28
43161;BME280;40968;52.342;5.528;2023-04-20T08:18:31;101999.56;;;6.64;68.47
43161;BME280;40968;52.342;5.528;2023-04-20T08:20:58;102060.59;;;6.94;68.13
43161;BME280;40968;52.342;5.528;2023-04-20T08:23:25;101998.72;;;6.63;68.69
43161;BME280;40968;52.342;5.528;2023-04-20T08:25:53;101883.09;;;5.76;68.71
43161;BME280;40968;52.342;5.528;2023-04-20T08:28:20;102016.16;;;6.72;68.51
43161;BME280;40968;52.342;5.528;2023-04-20T08:30:47;102062.25;;;6.96;68.49
43161;BME280;40968;52.342;5.528;2023-04-20T08:33:15;101913.94;;;6.07;68.57
43161;BME280;40968;52.342;5.528;2023-04-20T08:35:42;101980.66;;;6.48;68.76
43161;BME280;40968;52.342;5.528;2023-04-20T08:38:08;101959.09;;;6.32;68.44
43161;BME280;40968;52.342;5.528;2023-04-20T08:40:35;102062.19;;;6.98;68.91
43161;BME280;40968;52.342;5.528;2023-04-20T08:43:02;101965.59;;;6.47;68.33
43161;BME280;40968;52.342;5.528;2023-04-20T08:45:29;102044.13;;;7.06;68.03
43161;BME280;40968;52.342;5.528;2023-04-20T08:47:57;101998.53;;;6.90;67.96
43161;BME280;40968;52.342;5.528;2023-04-20T08:50:25;101685.47;;;5.04;67.62
43161;BME280;40968;52.342;5.528;2023-04-20T08:52:51;102005.38;;;6.97;67.85
43161;BME280;40968;52.342;5.528;2023-04-20T08:55:18;102047.34;;;7.37;67.93
43161;BME280;40968;52.342;5.528;2023-04-20T08:57:46;101989.06;;;7.05;67.73
43161;BME280;40968;52.342;5.528;2023-04-20T09:00:14;102034.78;;;7.39;67.36
43161;BME280;40968;52.342;5.528;2023-04-20T09:02:48;102053.09;;;7.48;67.33
43161;BME280;40968;52.342;5.528;2023-04-20T09:05:25;102050.28;;;7.51;67.47
43161;BME280;40968;52.342;5.528;2023-04-20T09:07:53;101945.91;;;6.95;67.42
43161;BME280;40968;52.342;5.528;2023-04-20T09:10:21;101992.63;;;7.26;67.30
43161;BME280;40968;52.342;5.528;2023-04-20T09:12:49;101970.88;;;7.15;67.14
43161;BME280;40968;52.342;5.528;2023-04-20T09:15:26;102025.06;;;7.58;66.94
43161;BME280;40968;52.342;5.528;2023-04-20T09:17:53;101971.31;;;7.47;66.97
43161;BME280;40968;52.342;5.528;2023-04-20T09:20:32;102006.66;;;7.73;66.38
43161;BME280;40968;52.342;5.528;2023-04-20T09:23:09;101947.72;;;7.38;65.77
43161;BME280;40968;52.342;5.528;2023-04-20T09:25:36;102010.22;;;8.13;65.97
43161;BME280;40968;52.342;5.528;2023-04-20T09:28:05;102033.97;;;8.40;65.36
43161;BME280;40968;52.342;5.528;2023-04-20T09:30:39;102030.22;;;8.63;64.92
43161;BME280;40968;52.342;5.528;2023-04-20T09:33:06;101939.38;;;8.06;65.09
43161;BME280;40968;52.342;5.528;2023-04-20T09:35:36;101867.53;;;7.61;64.39
43161;BME280;40968;52.342;5.528;2023-04-20T09:38:04;101918.72;;;8.09;63.95
43161;BME280;40968;52.342;5.528;2023-04-20T09:40:32;101950.78;;;8.28;64.01
43161;BME280;40968;52.342;5.528;2023-04-20T09:43:03;102029.09;;;8.69;63.65
43161;BME280;40968;52.342;5.528;2023-04-20T09:45:33;101946.81;;;8.37;63.99
43161;BME280;40968;52.342;5.528;2023-04-20T09:48:00;102000.19;;;8.77;63.67
43161;BME280;40968;52.342;5.528;2023-04-20T09:50:30;101672.34;;;6.94;63.09
43161;BME280;40968;52.342;5.528;2023-04-20T09:53:00;101762.34;;;7.48;62.61
43161;BME280;40968;52.342;5.528;2023-04-20T09:55:29;102001.78;;;8.99;62.31
43161;BME280;40968;52.342;5.528;2023-04-20T09:57:56;102022.50;;;9.32;62.19
43161;BME280;40968;52.342;5.528;2023-04-20T10:00:23;101991.22;;;9.15;62.30
43161;BME280;40968;52.342;5.528;2023-04-20T10:02:50;101757.28;;;7.80;61.89
43161;BME280;40968;52.342;5.528;2023-04-20T10:05:17;101952.72;;;9.00;61.38
43161;BME280;40968;52.342;5.528;2023-04-20T10:07:44;101959.50;;;9.07;61.80
43161;BME280;40968;52.342;5.528;2023-04-20T10:10:14;102007.06;;;9.37;61.97
43161;BME280;40968;52.342;5.528;2023-04-20T10:12:48;102009.28;;;9.46;61.65
43161;BME280;40968;52.342;5.528;2023-04-20T10:15:15;101811.09;;;8.45;60.38
43161;BME280;40968;52.342;5.528;2023-04-20T10:17:42;101773.06;;;8.21;60.23
43161;BME280;40968;52.342;5.528;2023-04-20T10:20:20;102009.81;;;9.88;59.84
43161;BME280;40968;52.342;5.528;2023-04-20T10:22:47;101967.06;;;9.69;59.70
43161;BME280;40968;52.342;5.528;2023-04-20T10:25:17;101940.78;;;9.59;59.71
43161;BME280;40968;52.342;5.528;2023-04-20T10:27:55;101933.69;;;9.58;59.16
43161;BME280;40968;52.342;5.528;2023-04-20T10:30:22;101997.72;;;9.96;59.71
43161;BME280;40968;52.342;5.528;2023-04-20T10:32:53;101973.50;;;9.82;60.41
43161;BME280;40968;52.342;5.528;2023-04-20T10:35:27;101998.72;;;10.11;59.82
43161;BME280;40968;52.342;5.528;2023-04-20T10:37:54;101892.22;;;9.50;58.63
43161;BME280;40968;52.342;5.528;2023-04-20T10:40:25;101947.75;;;10.13;58.96
43161;BME280;40968;52.342;5.528;2023-04-20T10:42:52;101942.63;;;10.08;59.03
43161;BME280;40968;52.342;5.528;2023-04-20T10:45:19;101969.84;;;10.66;58.05
43161;BME280;40968;52.342;5.528;2023-04-20T10:47:46;101961.13;;;10.78;57.77
43161;BME280;40968;52.342;5.528;2023-04-20T10:50:14;101972.94;;;10.90;56.84
43161;BME280;40968;52.342;5.528;2023-04-20T10:52:41;101920.38;;;10.72;57.08
43161;BME280;40968;52.342;5.528;2023-04-20T10:55:17;101931.72;;;10.77;57.52
43161;BME280;40968;52.342;5.528;2023-04-20T10:57:46;101906.53;;;10.64;56.11
43161;BME280;40968;52.342;5.528;2023-04-20T11:00:15;101951.50;;;10.90;55.80
43161;BME280;40968;52.342;5.528;2023-04-20T11:02:46;101944.41;;;10.89;56.26
43161;BME280;40968;52.342;5.528;2023-04-20T11:05:12;101952.31;;;11.07;56.05
43161;BME280;40968;52.342;5.528;2023-04-20T11:07:46;101906.63;;;11.08;55.78
43161;BME280;40968;52.342;5.528;2023-04-20T11:10:13;101955.81;;;11.68;55.66
43161;BME280;40968;52.342;5.528;2023-04-20T11:12:40;101872.88;;;11.35;54.97
43161;BME280;40968;52.342;5.528;2023-04-20T11:15:09;101919.44;;;11.34;54.21
43161;BME280;40968;52.342;5.528;2023-04-20T11:17:36;101972.75;;;11.40;54.86
43161;BME280;40968;52.342;5.528;2023-04-20T11:20:04;101951.75;;;11.32;55.52
43161;BME280;40968;52.342;5.528;2023-04-20T11:22:34;101923.94;;;11.03;54.81
43161;BME280;40968;52.342;5.528;2023-04-20T11:25:04;101921.03;;;10.91;55.16
43161;BME280;40968;52.342;5.528;2023-04-20T11:27:32;101951.47;;;11.06;56.14
43161;BME280;40968;52.342;5.528;2023-04-20T11:29:59;101950.75;;;11.03;56.40
43161;BME280;40968;52.342;5.528;2023-04-20T11:32:31;101939.09;;;11.04;55.95
43161;BME280;40968;52.342;5.528;2023-04-20T11:35:00;101699.06;;;9.59;55.40
43161;BME280;40968;52.342;5.528;2023-04-20T11:37:27;101938.84;;;10.92;55.72
43161;BME280;40968;52.342;5.528;2023-04-20T11:40:01;101811.63;;;10.20;55.77
43161;BME280;40968;52.342;5.528;2023-04-20T11:42:30;101642.56;;;9.16;55.33
43161;BME280;40968;52.342;5.528;2023-04-20T11:44:57;101932.38;;;10.81;56.16
43161;BME280;40968;52.342;5.528;2023-04-20T11:47:24;101930.91;;;10.75;56.14
43161;BME280;40968;52.342;5.528;2023-04-20T11:49:52;101885.41;;;10.43;56.23
43161;BME280;40968;52.342;5.528;2023-04-20T11:52:19;101934.56;;;10.74;56.88
43161;BME280;40968;52.342;5.528;2023-04-20T11:54:46;101933.47;;;10.92;55.96
43161;BME280;40968;52.342;5.528;2023-04-20T11:57:13;101858.44;;;10.76;55.63
43161;BME280;40968;52.342;5.528;2023-04-20T11:59:40;101845.47;;;10.69;55.12
43161;BME280;40968;52.342;5.528;2023-04-20T12:02:07;101867.94;;;10.82;54.68
43161;BME280;40968;52.342;5.528;2023-04-20T12:04:34;101882.31;;;10.81;54.08
43161;BME280;40968;52.342;5.528;2023-04-20T12:07:02;101923.50;;;11.10;54.69
43161;BME280;40968;52.342;5.528;2023-04-20T12:09:28;101826.59;;;10.86;53.80
43161;BME280;40968;52.342;5.528;2023-04-20T12:12:00;101927.16;;;11.54;54.42
43161;BME280;40968;52.342;5.528;2023-04-20T12:14:27;101876.19;;;11.38;53.83
43161;BME280;40968;52.342;5.528;2023-04-20T12:16:54;101820.06;;;10.90;53.52
43161;BME280;40968;52.342;5.528;2023-04-20T12:19:20;101863.03;;;11.05;53.65
43161;BME280;40968;52.342;5.528;2023-04-20T12:21:47;101773.41;;;10.32;53.31
43161;BME280;40968;52.342;5.528;2023-04-20T12:24:15;101930.03;;;11.21;53.93
43161;BME280;40968;52.342;5.528;2023-04-20T12:26:41;101719.31;;;9.95;53.58
43161;BME280;40968;52.342;5.528;2023-04-20T12:29:08;101916.47;;;11.08;53.72
43161;BME280;40968;52.342;5.528;2023-04-20T12:31:35;101710.16;;;9.83;53.79
43161;BME280;40968;52.342;5.528;2023-04-20T12:34:02;101806.88;;;10.41;54.00
43161;BME280;40968;52.342;5.528;2023-04-20T12:36:29;101917.72;;;11.02;54.91
43161;BME280;40968;52.342;5.528;2023-04-20T12:38:56;101731.66;;;9.98;53.63
43161;BME280;40968;52.342;5.528;2023-04-20T12:41:24;101867.41;;;10.75;54.35
43161;BME280;40968;52.342;5.528;2023-04-20T12:43:50;101915.09;;;11.17;54.17
43161;BME280;40968;52.342;5.528;2023-04-20T12:46:17;101904.25;;;11.18;53.56
43161;BME280;40968;52.342;5.528;2023-04-20T12:48:44;101828.34;;;10.71;53.78
43161;BME280;40968;52.342;5.528;2023-04-20T12:51:10;101854.41;;;10.69;53.62
43161;BME280;40968;52.342;5.528;2023-04-20T12:53:37;101829.19;;;10.57;54.25
43161;BME280;40968;52.342;5.528;2023-04-20T12:56:04;101907.69;;;11.06;54.69
43161;BME280;40968;52.342;5.528;2023-04-20T12:58:32;101623.44;;;9.39;54.17